createdAt,value
2019-04-27T00:02:26.463Z,5.90
2019-04-27T00:05:03.132Z,6.20
2019-04-27T00:07:51.419Z,5.53
2019-04-27T00:10:50.393Z,4.60
2019-04-27T00:13:20.459Z,5.27
2019-04-27T00:16:19.338Z,5.70
2019-04-27T00:19:17.535Z,5.80
2019-04-27T00:22:03.102Z,4.83
2019-04-27T00:24:33.547Z,6.70
2019-04-27T00:27:06.748Z,5.00
2019-04-27T00:29:36.893Z,5.10
2019-04-27T00:32:07.163Z,5.30
2019-04-27T00:34:37.421Z,6.97
2019-04-27T00:37:20.159Z,5.23
2019-04-27T00:39:58.759Z,5.47
2019-04-27T00:42:28.838Z,6.10
2019-04-27T00:44:59.849Z,5.77
2019-04-27T00:47:30.001Z,5.40
2019-04-27T00:50:00.050Z,5.37
2019-04-27T00:52:30.174Z,4.87
2019-04-27T00:55:00.283Z,3.87
2019-04-27T00:57:47.721Z,5.47
2019-04-27T01:00:44.011Z,5.00
2019-04-27T01:03:23.164Z,6.13
2019-04-27T01:05:53.219Z,4.97
2019-04-27T01:08:23.266Z,5.17
2019-04-27T01:10:53.783Z,5.20
2019-04-27T01:13:24.843Z,5.63
2019-04-27T01:15:55.697Z,6.97
2019-04-27T01:18:25.752Z,5.37
2019-04-27T01:20:55.913Z,5.53
2019-04-27T01:23:25.971Z,7.03
2019-04-27T01:26:10.697Z,6.30
2019-04-27T01:28:45.917Z,5.27
2019-04-27T01:31:15.976Z,5.53
2019-04-27T01:33:46.062Z,5.70
2019-04-27T01:36:16.144Z,7.30
2019-04-27T01:38:46.188Z,6.67
2019-04-27T01:41:16.255Z,5.33
2019-04-27T01:43:46.312Z,6.40
2019-04-27T01:46:16.338Z,6.97
2019-04-27T01:48:46.394Z,5.47
2019-04-27T01:51:16.474Z,5.90
2019-04-27T01:53:46.551Z,7.30
2019-04-27T01:56:16.566Z,6.43
2019-04-27T01:58:46.610Z,5.20
2019-04-27T02:01:48.949Z,6.87
2019-04-27T02:04:47.046Z,5.60
2019-04-27T02:07:19.082Z,6.03
2019-04-27T02:09:48.946Z,7.77
2019-04-27T02:12:19.315Z,6.10
2019-04-27T02:14:49.361Z,9.83
2019-04-27T02:17:19.447Z,8.63
2019-04-27T02:19:49.538Z,6.63
2019-04-27T02:22:19.637Z,6.07
2019-04-27T02:24:50.025Z,5.90
2019-04-27T02:27:21.733Z,7.00
2019-04-27T02:30:11.780Z,5.73
2019-04-27T02:33:06.725Z,3.87
2019-04-27T02:35:39.107Z,4.47
2019-04-27T02:38:10.071Z,4.03
2019-04-27T02:40:55.822Z,4.67
2019-04-27T02:43:44.812Z,4.03
2019-04-27T02:46:14.844Z,4.83
2019-04-27T02:48:55.972Z,4.40
2019-04-27T02:51:22.419Z,6.23
2019-04-27T02:54:00.175Z,4.87
2019-04-27T02:56:30.861Z,4.37
2019-04-27T02:59:00.951Z,4.67
2019-04-27T03:01:34.883Z,4.63
2019-04-27T03:04:04.977Z,4.30
2019-04-27T03:06:35.038Z,3.77
2019-04-27T03:09:10.213Z,5.47
2019-04-27T03:11:39.713Z,3.13
2019-04-27T03:14:35.844Z,5.13
2019-04-27T03:17:22.399Z,6.00
2019-04-27T03:19:56.686Z,5.60
2019-04-27T03:22:45.773Z,4.53
2019-04-27T03:25:35.623Z,3.70
2019-04-27T03:28:10.969Z,5.77
2019-04-27T03:30:42.867Z,3.80
2019-04-27T03:33:13.473Z,5.73
2019-04-27T03:35:44.203Z,5.23
2019-04-27T03:38:14.414Z,6.20
2019-04-27T03:40:44.487Z,6.00
2019-04-27T03:43:21.218Z,6.73
2019-04-27T03:45:52.493Z,4.10
2019-04-27T03:48:22.753Z,4.90
2019-04-27T03:51:09.988Z,4.47
2019-04-27T03:53:49.732Z,6.27
2019-04-27T03:56:39.548Z,5.13
2019-04-27T03:59:29.511Z,5.97
2019-04-27T04:02:02.405Z,6.33
2019-04-27T04:04:32.914Z,5.03
2019-04-27T04:07:13.575Z,6.30
2019-04-27T04:09:43.628Z,4.30
2019-04-27T04:12:31.294Z,5.43
2019-04-27T04:15:01.365Z,4.90
2019-04-27T04:17:31.410Z,6.07
2019-04-27T04:20:02.386Z,4.50
2019-04-27T04:22:33.479Z,5.50
2019-04-27T04:25:03.650Z,6.40
2019-04-27T04:27:33.752Z,4.70
2019-04-27T04:30:04.107Z,3.97
2019-04-27T04:32:34.208Z,4.20
2019-04-27T04:35:21.125Z,4.57
2019-04-27T04:37:52.694Z,4.80
2019-04-27T04:40:30.656Z,4.90
2019-04-27T04:43:06.981Z,4.00
2019-04-27T04:45:59.632Z,4.07
2019-04-27T04:48:30.336Z,5.03
2019-04-27T04:51:00.376Z,4.53
2019-04-27T04:53:30.405Z,5.90
2019-04-27T04:56:00.537Z,4.53
2019-04-27T04:58:31.319Z,5.53
2019-04-27T05:01:02.023Z,5.33
2019-04-27T05:03:32.278Z,5.70
2019-04-27T05:06:02.361Z,5.50
2019-04-27T05:08:32.444Z,6.10
2019-04-27T05:11:02.609Z,5.30
2019-04-27T05:13:32.653Z,6.07
2019-04-27T05:16:02.709Z,5.47
2019-04-27T05:18:32.750Z,4.33
2019-04-27T05:21:11.885Z,4.37
2019-04-27T05:23:41.929Z,4.00
2019-04-27T05:26:11.982Z,5.03
2019-04-27T05:28:42.050Z,4.93
2019-04-27T05:31:12.059Z,5.63
2019-04-27T05:33:42.096Z,5.70
2019-04-27T05:36:12.162Z,5.37
2019-04-27T05:38:45.920Z,5.23
2019-04-27T05:41:14.692Z,5.37
2019-04-27T05:44:07.568Z,5.00
2019-04-27T05:47:01.262Z,3.77
2019-04-27T05:49:40.439Z,4.17
2019-04-27T05:52:29.065Z,4.83
2019-04-27T05:54:59.302Z,5.40
2019-04-27T05:57:31.293Z,5.40
2019-04-27T06:00:02.307Z,4.13
2019-04-27T06:02:33.159Z,5.37
2019-04-27T06:05:04.513Z,5.67
2019-04-27T06:07:34.674Z,4.53
2019-04-27T06:10:04.990Z,6.03
2019-04-27T06:12:35.065Z,6.60
2019-04-27T06:15:05.885Z,5.43
2019-04-27T06:17:35.930Z,4.53
2019-04-27T06:20:06.634Z,5.30
2019-04-27T06:22:36.681Z,4.43
2019-04-27T06:25:06.967Z,4.97
2019-04-27T06:27:37.046Z,4.77
2019-04-27T06:30:09.214Z,5.87
2019-04-27T06:32:39.645Z,5.37
2019-04-27T06:35:12.299Z,5.00
2019-04-27T06:37:41.646Z,4.43
2019-04-27T06:40:11.761Z,3.97
2019-04-27T06:42:41.822Z,4.47
2019-04-27T06:45:11.889Z,5.40
2019-04-27T06:47:41.919Z,4.43
2019-04-27T06:50:12.044Z,4.17
2019-04-27T06:52:43.161Z,5.00
2019-04-27T06:55:13.278Z,4.43
2019-04-27T06:57:43.304Z,4.50
2019-04-27T07:00:13.378Z,4.20
2019-04-27T07:02:43.402Z,4.93
2019-04-27T07:05:13.474Z,3.17
2019-04-27T07:07:43.497Z,4.03
2019-04-27T07:10:13.529Z,3.97
2019-04-27T07:12:43.554Z,4.10
2019-04-27T07:15:15.504Z,4.43
2019-04-27T07:17:45.385Z,4.50
2019-04-27T07:20:15.454Z,5.10
2019-04-27T07:22:45.522Z,4.10
2019-04-27T07:25:15.581Z,2.20
2019-04-27T07:27:45.803Z,3.53
2019-04-27T07:30:15.886Z,3.23
2019-04-27T07:32:45.930Z,4.53
2019-04-27T07:35:15.988Z,5.17
2019-04-27T07:37:46.051Z,5.00
2019-04-27T07:40:16.112Z,5.97
2019-04-27T07:42:49.641Z,3.83
2019-04-27T07:45:25.598Z,3.63
2019-04-27T07:47:55.738Z,4.60
2019-04-27T07:50:25.786Z,4.67
2019-04-27T07:52:55.821Z,3.87
2019-04-27T07:55:25.887Z,3.63
2019-04-27T07:57:55.905Z,3.30
2019-04-27T08:00:25.922Z,3.27
2019-04-27T08:02:55.944Z,2.93
2019-04-27T08:05:25.957Z,3.33
2019-04-27T08:07:56.975Z,2.97
2019-04-27T08:10:27.021Z,3.20
2019-04-27T08:12:57.063Z,3.83
2019-04-27T08:15:28.999Z,2.80
2019-04-27T08:17:59.284Z,3.40
2019-04-27T08:20:29.515Z,3.33
2019-04-27T08:23:01.325Z,3.17
2019-04-27T08:25:31.539Z,3.90
2019-04-27T08:28:11.630Z,3.83
2019-04-27T08:30:56.504Z,4.30
2019-04-27T08:33:26.566Z,4.63
2019-04-27T08:35:59.135Z,3.77
2019-04-27T08:38:29.625Z,4.33
2019-04-27T08:40:59.702Z,3.50
2019-04-27T08:43:29.762Z,3.27
2019-04-27T08:46:00.346Z,4.07
2019-04-27T08:48:34.702Z,3.67
2019-04-27T08:51:03.006Z,2.37
2019-04-27T08:53:33.094Z,3.27
2019-04-27T08:56:03.166Z,2.93
2019-04-27T08:58:33.218Z,2.73
2019-04-27T09:01:03.420Z,1.80
2019-04-27T09:03:33.572Z,3.00
2019-04-27T09:06:07.064Z,2.90
2019-04-27T09:08:56.780Z,3.37
2019-04-27T09:11:39.938Z,3.40
2019-04-27T09:14:34.744Z,3.30
2019-04-27T09:17:13.781Z,3.77
2019-04-27T09:20:09.532Z,3.57
2019-04-27T09:22:39.733Z,2.80
2019-04-27T09:25:10.774Z,1.87
2019-04-27T09:27:41.224Z,2.87
2019-04-27T09:30:11.274Z,3.40
2019-04-27T09:32:41.397Z,4.00
2019-04-27T09:35:11.442Z,3.30
2019-04-27T09:37:41.507Z,2.40
2019-04-27T09:40:13.901Z,3.27
2019-04-27T09:42:43.941Z,2.73
2019-04-27T09:45:15.864Z,3.43
2019-04-27T09:47:46.815Z,2.37
2019-04-27T09:50:17.258Z,3.67
2019-04-27T09:52:47.298Z,2.40
2019-04-27T09:55:17.409Z,2.37
2019-04-27T09:57:47.433Z,3.10
2019-04-27T10:00:17.526Z,3.03
2019-04-27T10:02:47.570Z,2.83
2019-04-27T10:05:18.754Z,3.07
2019-04-27T10:07:48.791Z,4.20
2019-04-27T10:10:18.893Z,3.07
2019-04-27T10:12:48.941Z,3.00
2019-04-27T10:15:19.058Z,3.67
2019-04-27T10:17:49.157Z,3.07
2019-04-27T10:20:20.012Z,3.33
2019-04-27T10:22:50.145Z,3.50
2019-04-27T10:25:27.710Z,2.87
2019-04-27T10:28:00.778Z,2.87
2019-04-27T10:30:31.575Z,3.13
2019-04-27T10:33:01.596Z,2.17
2019-04-27T10:35:31.634Z,2.43
2019-04-27T10:38:01.753Z,2.07
2019-04-27T10:40:31.787Z,2.60
2019-04-27T10:43:01.853Z,1.77
2019-04-27T10:45:32.983Z,2.50
2019-04-27T10:48:03.118Z,2.90
2019-04-27T10:50:33.166Z,2.90
2019-04-27T10:53:03.209Z,3.03
2019-04-27T10:55:33.249Z,2.87
2019-04-27T10:58:03.436Z,2.53
2019-04-27T11:00:38.714Z,2.33
2019-04-27T11:03:08.826Z,2.60
2019-04-27T11:06:10.058Z,2.63
2019-04-27T11:08:40.112Z,3.07
2019-04-27T11:11:10.142Z,2.70
2019-04-27T11:13:40.234Z,2.33
2019-04-27T11:16:10.278Z,1.47
2019-04-27T11:18:40.382Z,2.70
2019-04-27T11:21:10.385Z,2.87
2019-04-27T11:23:40.424Z,2.70
2019-04-27T11:26:11.215Z,2.93
2019-04-27T11:28:42.752Z,2.50
2019-04-27T11:31:12.806Z,2.70
2019-04-27T11:33:42.876Z,2.17
2019-04-27T11:36:49.772Z,3.40
2019-04-27T11:39:21.240Z,2.80
2019-04-27T11:41:51.279Z,3.10
2019-04-27T11:44:21.307Z,2.63
2019-04-27T11:46:51.349Z,1.87
2019-04-27T11:49:21.442Z,3.40
2019-04-27T11:51:51.542Z,2.97
2019-04-27T11:54:21.649Z,2.60
2019-04-27T11:56:51.694Z,3.10
2019-04-27T11:59:22.705Z,2.57
2019-04-27T12:01:55.944Z,2.47
2019-04-27T12:04:26.374Z,2.43
2019-04-27T12:06:57.364Z,2.17
2019-04-27T12:09:27.403Z,2.70
2019-04-27T12:12:12.609Z,2.67
2019-04-27T12:14:29.316Z,2.50
2019-04-27T12:16:59.339Z,2.57
2019-04-27T12:19:29.358Z,2.50
2019-04-27T12:21:59.466Z,2.00
2019-04-27T12:24:29.558Z,2.60
2019-04-27T12:27:15.914Z,2.37
2019-04-27T12:30:26.061Z,2.80
2019-04-27T12:32:56.644Z,2.60
2019-04-27T12:35:27.708Z,2.07
2019-04-27T12:37:57.794Z,2.27
2019-04-27T12:40:27.862Z,3.00
2019-04-27T12:42:58.965Z,2.13
2019-04-27T12:45:30.137Z,2.80
2019-04-27T12:48:00.482Z,2.47
2019-04-27T12:50:30.483Z,2.00
2019-04-27T12:53:03.177Z,2.07
2019-04-27T12:56:11.227Z,2.60
2019-04-27T12:59:00.539Z,2.53
2019-04-27T13:01:30.659Z,1.97
2019-04-27T13:04:00.826Z,2.37
2019-04-27T13:06:31.811Z,2.30
2019-04-27T13:09:02.718Z,2.27
2019-04-27T13:11:34.152Z,2.53
2019-04-27T13:14:06.101Z,2.00
2019-04-27T13:16:35.995Z,1.90
2019-04-27T13:19:06.239Z,2.30
2019-04-27T13:21:36.641Z,2.23
2019-04-27T13:24:07.205Z,2.47
2019-04-27T13:26:38.118Z,2.60
2019-04-27T13:29:08.350Z,3.07
2019-04-27T13:31:38.402Z,1.93
2019-04-27T13:34:08.454Z,2.57
2019-04-27T13:36:38.496Z,2.60
2019-04-27T13:39:08.626Z,3.00
2019-04-27T13:41:40.114Z,2.30
2019-04-27T13:44:10.214Z,2.60
2019-04-27T13:46:57.693Z,2.77
2019-04-27T13:49:46.732Z,2.43
2019-04-27T13:52:26.779Z,2.07
2019-04-27T13:54:57.267Z,2.27
2019-04-27T13:57:27.313Z,2.23
2019-04-27T13:59:57.327Z,2.27
2019-04-27T14:02:32.298Z,2.27
2019-04-27T14:04:59.126Z,2.77
2019-04-27T14:07:29.174Z,2.20
2019-04-27T14:10:00.005Z,1.90
2019-04-27T14:12:30.101Z,1.70
2019-04-27T14:15:00.142Z,2.37
2019-04-27T14:17:30.156Z,2.60
2019-04-27T14:20:00.212Z,2.23
2019-04-27T14:22:31.587Z,2.23
2019-04-27T14:25:01.750Z,2.73
2019-04-27T14:27:40.667Z,2.07
2019-04-27T14:30:12.494Z,2.17
2019-04-27T14:32:42.587Z,2.57
2019-04-27T14:35:12.701Z,2.50
2019-04-27T14:37:42.719Z,2.53
2019-04-27T14:40:13.210Z,2.10
2019-04-27T14:42:43.368Z,2.70
2019-04-27T14:45:13.447Z,2.23
2019-04-27T14:47:43.505Z,2.30
2019-04-27T14:50:13.563Z,2.83
2019-04-27T14:52:43.586Z,3.97
2019-04-27T14:55:13.643Z,2.73
2019-04-27T14:57:43.649Z,2.60
2019-04-27T15:00:15.398Z,2.50
2019-04-27T15:02:45.449Z,3.37
2019-04-27T15:05:15.468Z,2.77
2019-04-27T15:07:45.490Z,2.73
2019-04-27T15:10:16.108Z,2.67
2019-04-27T15:12:46.401Z,1.87
2019-04-27T15:15:16.418Z,1.80
2019-04-27T15:17:46.467Z,2.03
2019-04-27T15:20:27.222Z,2.20
2019-04-27T15:22:56.885Z,2.30
2019-04-27T15:25:26.321Z,2.80
2019-04-27T15:28:01.270Z,2.30
2019-04-27T15:30:47.465Z,2.33
2019-04-27T15:33:46.825Z,2.70
2019-04-27T15:36:36.025Z,3.80
2019-04-27T15:39:11.788Z,1.90
2019-04-27T15:41:48.520Z,1.97
2019-04-27T15:44:18.819Z,2.37
2019-04-27T15:46:49.943Z,2.40
2019-04-27T15:49:20.017Z,2.50
2019-04-27T15:51:50.653Z,2.70
2019-04-27T15:54:22.326Z,2.80
2019-04-27T15:56:53.470Z,2.80
2019-04-27T15:59:30.875Z,3.50
2019-04-27T16:01:59.862Z,2.77
2019-04-27T16:04:29.908Z,2.23
2019-04-27T16:07:00.568Z,2.67
2019-04-27T16:09:30.660Z,2.13
2019-04-27T16:12:09.973Z,2.80
2019-04-27T16:14:32.483Z,2.30
2019-04-27T16:17:03.070Z,2.70
2019-04-27T16:19:34.213Z,2.83
2019-04-27T16:22:04.252Z,2.80
2019-04-27T16:24:34.293Z,3.00
2019-04-27T16:27:04.314Z,2.53
2019-04-27T16:29:34.377Z,2.83
2019-04-27T16:32:09.532Z,2.90
2019-04-27T16:34:37.865Z,2.10
2019-04-27T16:37:09.809Z,3.00
2019-04-27T16:39:45.378Z,2.47
2019-04-27T16:42:14.286Z,2.60
2019-04-27T16:44:44.347Z,3.10
2019-04-27T16:47:18.846Z,3.80
2019-04-27T16:49:48.447Z,2.77
2019-04-27T16:52:19.275Z,2.53
2019-04-27T16:54:56.956Z,3.23
2019-04-27T16:57:24.214Z,2.90
2019-04-27T16:59:57.523Z,2.80
2019-04-27T17:02:26.137Z,2.90
2019-04-27T17:04:56.206Z,3.23
2019-04-27T17:07:30.190Z,3.30
2019-04-27T17:09:59.472Z,3.43
2019-04-27T17:12:34.351Z,3.00
2019-04-27T17:15:18.989Z,2.70
2019-04-27T17:18:35.798Z,2.97
2019-04-27T17:21:18.374Z,2.87
2019-04-27T17:23:38.841Z,2.90
2019-04-27T17:26:20.680Z,3.03
2019-04-27T17:28:59.172Z,3.30
2019-04-27T17:31:31.734Z,3.43
2019-04-27T17:34:02.254Z,3.27
2019-04-27T17:36:32.299Z,2.63
2019-04-27T17:39:02.327Z,3.67
2019-04-27T17:41:33.970Z,3.13
2019-04-27T17:44:05.050Z,2.57
2019-04-27T17:46:35.066Z,3.67
2019-04-27T17:49:05.115Z,3.17
2019-04-27T17:51:39.552Z,2.53
2019-04-27T17:54:08.021Z,2.90
2019-04-27T17:56:48.345Z,3.50
2019-04-27T17:59:16.715Z,3.40
2019-04-27T18:01:42.050Z,2.83
2019-04-27T18:04:12.086Z,3.13
2019-04-27T18:06:42.660Z,3.10
2019-04-27T18:09:18.813Z,3.50
2019-04-27T18:11:50.382Z,3.70
2019-04-27T18:14:20.526Z,4.10
2019-04-27T18:16:50.547Z,3.23
2019-04-27T18:19:28.702Z,3.23
2019-04-27T18:22:05.709Z,4.07
2019-04-27T18:24:41.277Z,3.50
2019-04-27T18:27:19.465Z,3.03
2019-04-27T18:29:49.497Z,3.53
2019-04-27T18:32:23.594Z,3.47
2019-04-27T18:34:51.286Z,4.17
2019-04-27T18:37:24.709Z,3.20
2019-04-27T18:39:54.862Z,3.40
2019-04-27T18:42:29.714Z,3.63
2019-04-27T18:44:56.541Z,3.20
2019-04-27T18:47:26.545Z,2.93
2019-04-27T18:50:10.997Z,3.10
2019-04-27T18:52:47.265Z,3.33
2019-04-27T18:55:16.712Z,3.60
2019-04-27T18:57:45.874Z,2.83
2019-04-27T19:00:17.736Z,2.97
2019-04-27T19:02:50.041Z,4.23
2019-04-27T19:05:19.606Z,3.23
2019-04-27T19:07:49.698Z,3.97
2019-04-27T19:10:19.766Z,3.40
2019-04-27T19:12:49.800Z,3.73
2019-04-27T19:15:19.927Z,3.27
2019-04-27T19:17:50.004Z,3.80
2019-04-27T19:20:20.190Z,3.30
2019-04-27T19:22:50.315Z,2.97
2019-04-27T19:25:32.325Z,2.77
2019-04-27T19:28:33.147Z,2.60
2019-04-27T19:31:08.306Z,3.77
2019-04-27T19:33:39.602Z,3.67
2019-04-27T19:36:09.900Z,3.87
2019-04-27T19:38:40.061Z,3.60
2019-04-27T19:41:10.124Z,3.30
2019-04-27T19:43:40.334Z,3.57
2019-04-27T19:46:10.473Z,3.37
2019-04-27T19:48:40.631Z,3.40
2019-04-27T19:51:10.675Z,3.63
2019-04-27T19:53:40.775Z,3.40
2019-04-27T19:56:10.786Z,3.90
2019-04-27T19:58:45.136Z,3.70
2019-04-27T20:01:43.339Z,3.40
2019-04-27T20:04:21.185Z,3.73
2019-04-27T20:06:51.229Z,4.67
2019-04-27T20:09:44.161Z,3.80
2019-04-27T20:12:14.248Z,4.00
2019-04-27T20:14:56.638Z,3.80
2019-04-27T20:17:27.528Z,4.53
2019-04-27T20:19:57.628Z,3.37
2019-04-27T20:22:27.645Z,3.77
2019-04-27T20:24:57.749Z,4.30
2019-04-27T20:27:27.807Z,4.60
2019-04-27T20:29:57.866Z,3.23
2019-04-27T20:32:27.911Z,3.93
2019-04-27T20:34:58.081Z,3.70
2019-04-27T20:37:28.274Z,3.87
2019-04-27T20:39:58.323Z,2.43
2019-04-27T20:42:28.462Z,2.90
2019-04-27T20:44:58.772Z,2.93
2019-04-27T20:47:28.882Z,3.23
2019-04-27T20:49:59.030Z,4.00
2019-04-27T20:52:51.117Z,3.27
2019-04-27T20:55:21.515Z,3.20
2019-04-27T20:57:59.576Z,2.63
2019-04-27T21:00:24.770Z,2.80
2019-04-27T21:03:02.074Z,3.20
2019-04-27T21:05:51.086Z,3.33
2019-04-27T21:08:21.982Z,3.97
2019-04-27T21:10:52.101Z,4.10
2019-04-27T21:13:22.246Z,3.57
2019-04-27T21:15:52.308Z,3.90
2019-04-27T21:18:22.405Z,3.67
2019-04-27T21:20:52.442Z,3.47
2019-04-27T21:23:22.583Z,3.17
2019-04-27T21:25:53.594Z,3.40
2019-04-27T21:28:23.764Z,3.30
2019-04-27T21:30:53.784Z,3.57
2019-04-27T21:33:23.888Z,3.20
2019-04-27T21:35:54.016Z,3.37
2019-04-27T21:38:24.208Z,2.70
2019-04-27T21:40:54.319Z,3.13
2019-04-27T21:43:26.640Z,3.73
2019-04-27T21:45:56.775Z,2.83
2019-04-27T21:48:28.329Z,2.90
2019-04-27T21:50:58.350Z,3.57
2019-04-27T21:53:51.530Z,3.70
2019-04-27T21:56:21.567Z,2.70
2019-04-27T21:58:51.690Z,2.97
2019-04-27T22:01:38.792Z,3.20
2019-04-27T22:04:11.441Z,3.30
2019-04-27T22:06:42.195Z,2.40
2019-04-27T22:09:15.362Z,3.13
2019-04-27T22:11:45.582Z,2.90
2019-04-27T22:14:15.633Z,2.10
2019-04-27T22:16:46.659Z,3.00
2019-04-27T22:19:16.751Z,2.53
2019-04-27T22:21:46.827Z,2.80
2019-04-27T22:24:25.221Z,2.67
2019-04-27T22:26:55.279Z,2.87
2019-04-27T22:29:25.346Z,2.33
2019-04-27T22:31:55.700Z,3.20
2019-04-27T22:34:25.778Z,2.80
2019-04-27T22:36:55.829Z,2.90
2019-04-27T22:39:41.351Z,2.80
2019-04-27T22:42:28.781Z,2.60
2019-04-27T22:45:20.533Z,2.73
2019-04-27T22:47:51.697Z,2.60
2019-04-27T22:50:21.795Z,2.63
2019-04-27T22:52:51.849Z,2.90
2019-04-27T22:55:22.110Z,2.97
2019-04-27T22:57:57.196Z,2.17
2019-04-27T23:00:51.179Z,3.80
2019-04-27T23:03:27.656Z,2.33
2019-04-27T23:05:57.752Z,1.97
2019-04-27T23:08:27.817Z,2.40
2019-04-27T23:10:57.998Z,1.70
2019-04-27T23:13:28.032Z,1.90
2019-04-27T23:16:01.460Z,2.03
2019-04-27T23:18:31.671Z,2.30
2019-04-27T23:21:01.706Z,1.93
2019-04-27T23:23:31.733Z,2.50
2019-04-27T23:26:01.955Z,2.30
2019-04-27T23:28:31.988Z,1.07
2019-04-27T23:31:10.951Z,2.33
2019-04-27T23:33:43.906Z,1.87
2019-04-27T23:36:13.926Z,2.50
2019-04-27T23:38:44.030Z,2.37
2019-04-27T23:41:14.818Z,2.00
2019-04-27T23:43:44.876Z,2.10
2019-04-27T23:46:14.890Z,2.23
2019-04-27T23:48:44.950Z,2.63
2019-04-27T23:51:33.923Z,2.23
2019-04-27T23:54:03.965Z,2.13
2019-04-27T23:56:33.990Z,2.27
2019-04-27T23:59:04.112Z,2.47
